createdAt,value
2023-04-25T00:00:20.994Z,14.70
2023-04-25T00:02:48.229Z,13.30
2023-04-25T00:05:18.477Z,13.50
2023-04-25T00:07:45.557Z,15.82
2023-04-25T00:10:12.930Z,14.18
2023-04-25T00:12:40.264Z,17.63
2023-04-25T00:15:07.855Z,12.80
2023-04-25T00:17:36.046Z,18.02
2023-04-25T00:20:06.172Z,16.27
2023-04-25T00:22:35.842Z,15.85
2023-04-25T00:25:04.489Z,15.15
2023-04-25T00:27:31.572Z,15.75
2023-04-25T00:29:58.691Z,11.75
2023-04-25T00:32:26.197Z,15.23
2023-04-25T00:34:53.296Z,14.18
2023-04-25T00:37:20.979Z,15.10
2023-04-25T00:39:48.007Z,18.13
2023-04-25T00:42:15.140Z,17.00
2023-04-25T00:44:43.340Z,18.45
2023-04-25T00:47:12.548Z,14.07
2023-04-25T00:49:39.534Z,18.50
2023-04-25T00:52:06.685Z,15.68
2023-04-25T00:54:33.721Z,14.75
2023-04-25T00:57:02.138Z,14.18
2023-04-25T00:59:30.944Z,18.02
2023-04-25T01:01:59.210Z,22.75
2023-04-25T01:04:30.841Z,13.65
2023-04-25T01:06:59.107Z,19.23
2023-04-25T01:09:26.861Z,14.85
2023-04-25T01:11:54.006Z,12.82
2023-04-25T01:14:21.240Z,14.52
2023-04-25T01:16:48.359Z,12.65
2023-04-25T01:19:19.258Z,15.32
2023-04-25T01:21:47.593Z,13.70
2023-04-25T01:24:15.407Z,15.77
2023-04-25T01:26:50.653Z,17.83
2023-04-25T01:29:22.527Z,13.57
2023-04-25T01:31:50.392Z,15.52
2023-04-25T01:34:17.504Z,14.50
2023-04-25T01:36:44.544Z,17.27
2023-04-25T01:39:11.683Z,13.77
2023-04-25T01:41:39.830Z,15.38
2023-04-25T01:44:07.355Z,15.38
2023-04-25T01:46:35.119Z,14.27
2023-04-25T01:49:03.068Z,13.93
2023-04-25T01:51:31.582Z,14.85
2023-04-25T01:54:01.006Z,12.15
2023-04-25T01:56:33.818Z,15.05
2023-04-25T01:59:01.826Z,13.70
2023-04-25T02:02:05.011Z,14.50
2023-04-25T02:04:34.069Z,11.23
2023-04-25T02:07:02.393Z,13.30
2023-04-25T02:09:39.190Z,14.38
2023-04-25T02:12:09.947Z,12.90
2023-04-25T02:15:00.027Z,15.55
2023-04-25T02:17:36.491Z,13.40
2023-04-25T02:20:04.313Z,11.57
2023-04-25T02:22:31.791Z,17.15
2023-04-25T02:24:59.108Z,14.95
2023-04-25T02:27:26.341Z,13.20
2023-04-25T02:29:53.363Z,14.25
2023-04-25T02:32:20.521Z,12.65
2023-04-25T02:34:49.239Z,14.45
2023-04-25T02:37:16.249Z,16.05
2023-04-25T02:39:46.224Z,17.77
2023-04-25T02:42:13.379Z,14.23
2023-04-25T02:44:40.436Z,22.48
2023-04-25T02:47:07.542Z,15.35
2023-04-25T02:49:34.575Z,13.38
2023-04-25T02:52:01.680Z,13.98
2023-04-25T02:54:28.947Z,14.82
2023-04-25T02:56:56.933Z,16.00
2023-04-25T02:59:28.037Z,13.45
2023-04-25T03:01:55.215Z,19.77
2023-04-25T03:04:24.964Z,20.58
2023-04-25T03:06:52.635Z,18.40
2023-04-25T03:09:21.850Z,14.20
2023-04-25T03:11:49.479Z,14.43
2023-04-25T03:14:16.530Z,14.98
2023-04-25T03:16:43.618Z,16.77
2023-04-25T03:19:10.764Z,18.30
2023-04-25T03:21:38.501Z,13.35
2023-04-25T03:24:06.170Z,19.27
2023-04-25T03:26:33.331Z,13.02
2023-04-25T03:29:00.828Z,15.93
2023-04-25T03:31:28.512Z,20.65
2023-04-25T03:33:55.662Z,19.33
2023-04-25T03:36:24.303Z,16.63
2023-04-25T03:38:51.722Z,16.08
2023-04-25T03:41:21.249Z,15.23
2023-04-25T03:43:55.086Z,13.77
2023-04-25T03:46:22.333Z,14.68
2023-04-25T03:48:49.920Z,13.23
2023-04-25T03:51:22.409Z,18.33
2023-04-25T03:53:49.996Z,16.52
2023-04-25T03:56:20.099Z,17.30
2023-04-25T03:58:50.902Z,16.65
2023-04-25T04:01:20.596Z,21.48
2023-04-25T04:03:48.398Z,17.25
2023-04-25T04:06:16.842Z,17.42
2023-04-25T04:08:48.136Z,15.10
2023-04-25T04:11:15.292Z,22.02
2023-04-25T04:13:42.655Z,14.90
2023-04-25T04:16:09.870Z,16.05
2023-04-25T04:18:37.202Z,16.73
2023-04-25T04:21:04.235Z,17.25
2023-04-25T04:23:34.834Z,21.02
2023-04-25T04:26:02.271Z,18.48
2023-04-25T04:28:38.879Z,17.40
2023-04-25T04:31:26.233Z,16.05
2023-04-25T04:33:53.425Z,16.10
2023-04-25T04:36:21.031Z,14.43
2023-04-25T04:38:48.922Z,16.08
2023-04-25T04:41:24.869Z,12.52
2023-04-25T04:44:08.857Z,15.80
2023-04-25T04:47:08.355Z,14.18
2023-04-25T04:49:53.137Z,17.50
2023-04-25T04:52:53.106Z,15.75
2023-04-25T04:55:43.979Z,13.18
2023-04-25T04:58:30.772Z,14.88
2023-04-25T05:01:24.497Z,12.45
2023-04-25T05:04:15.236Z,14.88
2023-04-25T05:07:00.806Z,10.85
2023-04-25T05:09:28.190Z,13.90
2023-04-25T05:12:15.578Z,10.23
2023-04-25T05:14:58.826Z,16.08
2023-04-25T05:17:44.541Z,11.65
2023-04-25T05:20:30.401Z,12.93
2023-04-25T05:23:01.210Z,11.27
2023-04-25T05:25:43.742Z,11.48
2023-04-25T05:28:17.562Z,14.57
2023-04-25T05:31:01.226Z,11.90
2023-04-25T05:33:31.635Z,16.23
2023-04-25T05:36:00.027Z,20.85
2023-04-25T05:38:27.401Z,13.68
2023-04-25T05:41:26.912Z,17.50
2023-04-25T05:44:01.716Z,19.33
2023-04-25T05:46:31.735Z,14.52
2023-04-25T05:49:19.849Z,17.10
2023-04-25T05:51:58.766Z,12.93
2023-04-25T05:54:44.378Z,14.38
2023-04-25T05:57:21.726Z,14.00
2023-04-25T05:59:48.892Z,20.73
2023-04-25T06:02:16.299Z,13.23
2023-04-25T06:04:43.998Z,13.60
2023-04-25T06:07:11.281Z,13.35
2023-04-25T06:09:40.098Z,16.30
2023-04-25T06:12:07.956Z,12.68
2023-04-25T06:14:36.709Z,13.70
2023-04-25T06:17:09.404Z,10.35
2023-04-25T06:19:37.313Z,10.02
2023-04-25T06:22:04.499Z,15.68
2023-04-25T06:24:35.826Z,12.73
2023-04-25T06:27:04.812Z,10.80
2023-04-25T06:29:31.856Z,14.05
2023-04-25T06:31:59.211Z,12.45
2023-04-25T06:34:26.306Z,14.95
2023-04-25T06:36:53.609Z,9.98
2023-04-25T06:39:24.149Z,15.10
2023-04-25T06:41:51.209Z,11.98
2023-04-25T06:44:36.991Z,11.05
2023-04-25T06:47:07.567Z,11.25
2023-04-25T06:49:34.714Z,9.88
2023-04-25T06:52:02.669Z,13.82
2023-04-25T06:54:30.820Z,12.15
2023-04-25T06:57:05.548Z,14.20
2023-04-25T06:59:33.956Z,11.10
2023-04-25T07:02:01.058Z,9.43
2023-04-25T07:04:28.995Z,9.07
2023-04-25T07:06:57.955Z,8.15
2023-04-25T07:09:35.084Z,11.07
2023-04-25T07:12:02.732Z,7.60
2023-04-25T07:14:29.696Z,7.10
2023-04-25T07:16:58.261Z,9.07
2023-04-25T07:19:27.941Z,9.23
2023-04-25T07:21:57.583Z,15.27
2023-04-25T07:24:25.107Z,11.55
2023-04-25T07:26:54.745Z,9.57
2023-04-25T07:29:38.192Z,7.35
2023-04-25T07:32:05.771Z,9.38
2023-04-25T07:34:33.255Z,7.45
2023-04-25T07:37:00.909Z,12.65
2023-04-25T07:39:35.594Z,11.63
2023-04-25T07:42:03.338Z,13.38
2023-04-25T07:44:39.362Z,10.00
2023-04-25T07:47:08.615Z,9.18
2023-04-25T07:49:36.527Z,8.88
2023-04-25T07:52:04.820Z,8.15
2023-04-25T07:54:32.181Z,7.53
2023-04-25T07:57:04.959Z,7.20
2023-04-25T07:59:32.059Z,6.93
2023-04-25T08:02:02.044Z,6.75
2023-04-25T08:04:30.097Z,9.15
2023-04-25T08:07:05.374Z,9.93
2023-04-25T08:09:40.371Z,7.40
2023-04-25T08:12:12.869Z,7.93
2023-04-25T08:14:41.224Z,10.25
2023-04-25T08:17:08.400Z,8.75
2023-04-25T08:19:40.700Z,7.45
2023-04-25T08:22:12.324Z,8.60
2023-04-25T08:24:49.277Z,7.40
2023-04-25T08:27:18.067Z,10.30
2023-04-25T08:29:45.221Z,9.07
2023-04-25T08:32:12.445Z,6.55
2023-04-25T08:34:47.915Z,6.88
2023-04-25T08:37:15.459Z,9.68
2023-04-25T08:39:54.721Z,6.20
2023-04-25T08:42:42.648Z,12.70
2023-04-25T08:45:10.685Z,9.07
2023-04-25T08:47:41.050Z,12.48
2023-04-25T08:50:08.837Z,6.90
2023-04-25T08:52:46.929Z,7.82
2023-04-25T08:55:15.482Z,8.80
2023-04-25T08:57:46.547Z,5.35
2023-04-25T09:00:14.504Z,9.18
2023-04-25T09:02:45.244Z,8.50
2023-04-25T09:05:14.881Z,8.15
2023-04-25T09:07:42.663Z,6.35
2023-04-25T09:10:10.233Z,16.27
2023-04-25T09:12:39.147Z,9.52
2023-04-25T09:15:11.922Z,8.98
2023-04-25T09:17:58.220Z,7.32
2023-04-25T09:20:30.297Z,9.68
2023-04-25T09:23:06.503Z,10.25
2023-04-25T09:25:39.960Z,9.85
2023-04-25T09:28:09.044Z,6.60
2023-04-25T09:30:37.957Z,9.10
2023-04-25T09:33:12.700Z,6.85
2023-04-25T09:35:46.178Z,9.13
2023-04-25T09:38:22.443Z,8.00
2023-04-25T09:41:24.913Z,9.73
2023-04-25T09:43:52.356Z,9.07
2023-04-25T09:46:22.250Z,6.97
2023-04-25T09:48:55.077Z,5.85
2023-04-25T09:51:56.204Z,7.20
2023-04-25T09:54:27.644Z,8.70
2023-04-25T09:57:12.762Z,8.05
2023-04-25T09:59:44.619Z,5.50
2023-04-25T10:02:12.885Z,7.30
2023-04-25T10:04:42.262Z,7.28
2023-04-25T10:07:32.427Z,6.40
2023-04-25T10:10:05.868Z,9.98
2023-04-25T10:12:37.301Z,5.97
2023-04-25T10:15:05.267Z,5.63
2023-04-25T10:17:35.272Z,5.88
2023-04-25T10:20:09.399Z,6.55
2023-04-25T10:22:47.345Z,5.88
2023-04-25T10:25:15.288Z,5.57
2023-04-25T10:27:42.740Z,5.40
2023-04-25T10:30:17.007Z,8.82
2023-04-25T10:32:45.051Z,5.72
2023-04-25T10:35:17.733Z,5.72
2023-04-25T10:38:09.892Z,8.15
2023-04-25T10:40:37.704Z,13.20
2023-04-25T10:43:32.421Z,9.90
2023-04-25T10:46:03.132Z,6.63
2023-04-25T10:48:32.093Z,6.70
2023-04-25T10:51:12.310Z,6.15
2023-04-25T10:53:39.431Z,4.95
2023-04-25T10:56:34.055Z,9.70
2023-04-25T10:59:05.901Z,8.75
2023-04-25T11:01:38.503Z,6.15
2023-04-25T11:04:05.998Z,7.22
2023-04-25T11:07:08.542Z,7.93
2023-04-25T11:09:39.033Z,4.72
2023-04-25T11:12:06.475Z,5.28
2023-04-25T11:14:33.445Z,7.78
2023-04-25T11:17:02.222Z,6.80
2023-04-25T11:19:30.387Z,5.70
2023-04-25T11:21:59.238Z,8.85
2023-04-25T11:24:36.577Z,5.85
2023-04-25T11:27:05.041Z,6.93
2023-04-25T11:29:34.183Z,4.97
2023-04-25T11:32:02.339Z,5.03
2023-04-25T11:34:33.957Z,7.05
2023-04-25T11:37:03.225Z,7.53
2023-04-25T11:39:31.073Z,9.07
2023-04-25T11:41:58.373Z,5.85
2023-04-25T11:44:25.681Z,6.90
2023-04-25T11:46:52.707Z,6.35
2023-04-25T11:49:19.780Z,4.93
2023-04-25T11:51:48.979Z,5.03
2023-04-25T11:54:16.698Z,6.38
2023-04-25T11:56:45.028Z,7.38
2023-04-25T11:59:13.037Z,5.43
2023-04-25T12:01:42.656Z,5.32
2023-04-25T12:04:15.172Z,6.55
2023-04-25T12:06:44.569Z,7.15
2023-04-25T12:09:14.318Z,5.68
2023-04-25T12:11:50.143Z,6.43
2023-04-25T12:14:25.274Z,5.47
2023-04-25T12:16:52.881Z,9.95
2023-04-25T12:19:22.245Z,6.47
2023-04-25T12:21:58.119Z,8.15
2023-04-25T12:27:05.311Z,5.40
2023-04-25T12:29:41.946Z,7.45
2023-04-25T12:32:15.581Z,5.97
2023-04-25T12:34:42.717Z,7.90
2023-04-25T12:37:09.833Z,6.38
2023-04-25T12:39:37.003Z,6.13
2023-04-25T12:42:06.214Z,4.35
2023-04-25T12:44:36.093Z,9.02
2023-04-25T12:47:04.271Z,5.97
2023-04-25T12:49:31.674Z,5.80
2023-04-25T12:51:59.319Z,5.75
2023-04-25T12:54:27.041Z,5.32
2023-04-25T12:56:54.288Z,8.15
2023-04-25T12:59:22.397Z,5.25
2023-04-25T13:01:49.917Z,6.57
2023-04-25T13:04:18.855Z,17.38
2023-04-25T13:06:46.189Z,7.20
2023-04-25T13:09:13.747Z,11.68
2023-04-25T13:11:42.507Z,5.13
2023-04-25T13:14:09.573Z,6.43
2023-04-25T13:16:36.785Z,8.77
2023-04-25T13:19:03.866Z,7.88
2023-04-25T13:21:33.459Z,7.15
2023-04-25T13:24:00.813Z,6.88
2023-04-25T13:26:27.963Z,6.85
2023-04-25T13:28:54.994Z,7.80
2023-04-25T13:31:22.297Z,7.75
2023-04-25T13:33:49.987Z,7.93
2023-04-25T13:36:17.605Z,7.20
2023-04-25T13:38:46.175Z,5.90
2023-04-25T13:41:18.897Z,6.57
2023-04-25T13:43:49.050Z,6.43
2023-04-25T13:46:35.146Z,6.43
2023-04-25T13:49:12.421Z,6.20
2023-04-25T13:51:41.503Z,8.38
2023-04-25T13:54:08.819Z,8.65
2023-04-25T13:56:36.053Z,5.60
2023-04-25T13:59:03.032Z,9.18
2023-04-25T14:01:32.270Z,6.57
2023-04-25T14:03:59.553Z,8.98
2023-04-25T14:06:27.060Z,8.27
2023-04-25T14:08:55.075Z,8.35
2023-04-25T14:11:22.176Z,6.43
2023-04-25T14:13:50.622Z,4.97
2023-04-25T14:16:18.380Z,7.13
2023-04-25T14:18:45.460Z,6.57
2023-04-25T14:21:12.525Z,5.60
2023-04-25T14:23:39.598Z,10.45
2023-04-25T14:26:06.797Z,7.65
2023-04-25T14:28:33.869Z,10.18
2023-04-25T14:31:01.769Z,10.15
2023-04-25T14:33:28.974Z,5.05
2023-04-25T14:35:56.200Z,9.82
2023-04-25T14:38:24.516Z,8.55
2023-04-25T14:40:52.667Z,6.20
2023-04-25T14:43:19.642Z,8.82
2023-04-25T14:45:46.791Z,10.48
2023-04-25T14:48:13.987Z,9.00
2023-04-25T14:50:41.024Z,10.23
2023-04-25T14:53:08.140Z,10.18
2023-04-25T14:55:35.135Z,8.40
2023-04-25T14:58:02.183Z,10.60
2023-04-25T15:00:29.506Z,6.55
2023-04-25T15:02:57.318Z,9.05
2023-04-25T15:05:24.601Z,6.25
2023-04-25T15:07:51.725Z,7.95
2023-04-25T15:10:19.670Z,11.93
2023-04-25T15:12:48.019Z,5.72
2023-04-25T15:15:22.664Z,6.53
2023-04-25T15:17:53.004Z,5.88
2023-04-25T15:20:20.118Z,12.32
2023-04-25T15:22:49.766Z,8.27
2023-04-25T15:25:20.658Z,6.88
2023-04-25T15:27:49.631Z,6.60
2023-04-25T15:30:17.896Z,7.10
2023-04-25T15:32:47.228Z,9.50
2023-04-25T15:35:15.957Z,6.78
2023-04-25T15:37:43.451Z,8.80
2023-04-25T15:40:16.640Z,10.45
2023-04-25T15:42:51.548Z,5.20
2023-04-25T15:45:20.852Z,7.07
2023-04-25T15:47:48.044Z,8.00
2023-04-25T15:50:16.298Z,7.18
2023-04-25T15:52:43.917Z,9.00
2023-04-25T15:55:12.955Z,6.82
2023-04-25T15:57:42.131Z,6.53
2023-04-25T16:00:13.475Z,6.82
2023-04-25T16:02:43.480Z,4.75
2023-04-25T16:05:11.682Z,7.75
2023-04-25T16:07:43.515Z,7.15
2023-04-25T16:10:11.723Z,6.72
2023-04-25T16:12:42.220Z,7.57
2023-04-25T16:15:09.603Z,8.00
2023-04-25T16:17:36.888Z,8.32
2023-04-25T16:20:10.433Z,8.90
2023-04-25T16:22:42.281Z,4.97
2023-04-25T16:25:10.635Z,7.03
2023-04-25T16:27:40.732Z,10.70
2023-04-25T16:30:10.163Z,10.63
2023-04-25T16:32:38.332Z,9.32
2023-04-25T16:35:06.272Z,14.60
2023-04-25T16:37:33.598Z,9.38
2023-04-25T16:40:00.740Z,8.27
2023-04-25T16:42:30.844Z,11.10
2023-04-25T16:44:57.845Z,7.55
2023-04-25T16:47:25.692Z,7.63
2023-04-25T16:49:53.394Z,7.07
2023-04-25T16:52:22.105Z,7.78
2023-04-25T16:54:49.235Z,7.38
2023-04-25T16:57:16.637Z,7.45
2023-04-25T16:59:43.890Z,9.77
2023-04-25T17:02:13.246Z,11.00
2023-04-25T17:04:41.123Z,8.27
2023-04-25T17:07:08.906Z,8.07
2023-04-25T17:09:36.442Z,8.73
2023-04-25T17:12:04.638Z,7.85
2023-04-25T17:14:33.336Z,8.73
2023-04-25T17:17:01.019Z,7.82
2023-04-25T17:19:28.662Z,5.03
2023-04-25T17:21:56.220Z,7.65
2023-04-25T17:24:23.314Z,7.15
2023-04-25T17:26:50.354Z,9.35
2023-04-25T17:29:17.397Z,10.27
2023-04-25T17:31:45.071Z,6.65
2023-04-25T17:34:16.582Z,6.90
2023-04-25T17:36:45.116Z,7.80
2023-04-25T17:39:12.282Z,5.57
2023-04-25T17:41:39.297Z,7.28
2023-04-25T17:44:06.818Z,9.75
2023-04-25T17:46:33.868Z,8.68
2023-04-25T17:49:01.325Z,8.23
2023-04-25T17:51:28.609Z,4.70
2023-04-25T17:53:55.931Z,7.15
2023-04-25T17:56:27.176Z,6.90
2023-04-25T17:58:55.092Z,6.97
2023-04-25T18:01:22.845Z,6.20
2023-04-25T18:03:51.909Z,5.80
2023-04-25T18:06:19.413Z,6.53
2023-04-25T18:08:47.279Z,5.57
2023-04-25T18:11:14.498Z,5.60
2023-04-25T18:13:41.729Z,7.70
2023-04-25T18:16:09.161Z,6.28
2023-04-25T18:18:37.096Z,5.88
2023-04-25T18:21:05.853Z,8.60
2023-04-25T18:23:36.037Z,6.93
2023-04-25T18:26:04.449Z,5.40
2023-04-25T18:28:34.202Z,8.50
2023-04-25T18:31:01.769Z,6.47
2023-04-25T18:33:28.866Z,7.80
2023-04-25T18:35:59.678Z,8.45
2023-04-25T18:41:08.209Z,7.40
2023-04-25T18:43:44.918Z,7.55
2023-04-25T18:46:12.389Z,7.00
2023-04-25T18:48:39.444Z,7.78
2023-04-25T18:51:06.657Z,6.93
2023-04-25T18:53:33.821Z,7.45
2023-04-25T18:56:01.245Z,8.82
2023-04-25T18:58:28.370Z,8.88
2023-04-25T19:00:55.607Z,6.65
2023-04-25T19:03:22.966Z,9.23
2023-04-25T19:05:50.196Z,6.43
2023-04-25T19:08:17.264Z,6.20
2023-04-25T19:10:44.573Z,8.23
2023-04-25T19:13:11.629Z,9.15
2023-04-25T19:15:39.555Z,7.32
2023-04-25T19:18:06.953Z,12.00
2023-04-25T19:20:34.530Z,7.57
2023-04-25T19:23:01.861Z,8.20
2023-04-25T19:25:28.964Z,6.82
2023-04-25T19:27:56.721Z,6.10
2023-04-25T19:30:24.156Z,9.32
2023-04-25T19:32:51.283Z,8.23
2023-04-25T19:35:18.356Z,7.63
2023-04-25T19:37:48.215Z,6.15
2023-04-25T19:40:16.779Z,5.80
2023-04-25T19:42:45.047Z,5.95
2023-04-25T19:45:12.613Z,6.63
2023-04-25T19:47:39.900Z,6.07
2023-04-25T19:50:08.608Z,6.20
2023-04-25T19:52:36.886Z,4.10
2023-04-25T19:55:05.054Z,8.18
2023-04-25T19:57:35.132Z,6.45
2023-04-25T20:00:08.944Z,5.65
2023-04-25T20:02:45.521Z,6.53
2023-04-25T20:05:17.118Z,5.53
2023-04-25T20:07:44.286Z,5.13
2023-04-25T20:10:16.516Z,6.25
2023-04-25T20:12:44.936Z,4.13
2023-04-25T20:15:12.420Z,6.95
2023-04-25T20:17:41.940Z,6.00
2023-04-25T20:20:10.965Z,5.93
2023-04-25T20:22:40.279Z,5.80
2023-04-25T20:25:09.990Z,4.97
2023-04-25T20:27:40.544Z,7.35
2023-04-25T20:30:08.749Z,6.72
2023-04-25T20:32:37.125Z,7.30
2023-04-25T20:35:07.191Z,6.65
2023-04-25T20:37:35.463Z,7.60
2023-04-25T20:40:06.410Z,4.55
2023-04-25T20:42:34.405Z,6.53
2023-04-25T20:45:01.985Z,6.95
2023-04-25T20:47:31.590Z,4.68
2023-04-25T20:49:59.466Z,5.45
2023-04-25T20:52:26.509Z,5.15
2023-04-25T20:54:54.325Z,6.03
2023-04-25T20:57:21.371Z,4.88
2023-04-25T20:59:49.612Z,7.57
2023-04-25T21:02:17.970Z,6.43
2023-04-25T21:04:45.217Z,7.93
2023-04-25T21:07:13.197Z,5.22
2023-04-25T21:09:45.590Z,6.97
2023-04-25T21:12:12.866Z,6.38
2023-04-25T21:14:39.886Z,7.30
2023-04-25T21:17:06.983Z,5.75
2023-04-25T21:19:34.357Z,7.80
2023-04-25T21:22:02.419Z,5.05
2023-04-25T21:24:31.294Z,8.95
2023-04-25T21:26:58.802Z,5.35
2023-04-25T21:29:25.959Z,4.95
2023-04-25T21:31:53.154Z,5.82
2023-04-25T21:34:20.152Z,8.90
2023-04-25T21:36:47.170Z,6.95
2023-04-25T21:39:15.175Z,7.20
2023-04-25T21:41:44.496Z,4.95
2023-04-25T21:44:12.998Z,5.22
2023-04-25T21:46:40.061Z,7.20
2023-04-25T21:49:07.344Z,6.70
2023-04-25T21:51:34.434Z,6.07
2023-04-25T21:54:05.360Z,8.13
2023-04-25T21:56:33.213Z,6.50
2023-04-25T21:59:00.561Z,5.05
2023-04-25T22:01:28.696Z,6.32
2023-04-25T22:03:56.010Z,5.60
2023-04-25T22:06:23.231Z,7.22
2023-04-25T22:08:50.542Z,7.50
2023-04-25T22:11:17.761Z,6.20
2023-04-25T22:13:45.666Z,7.65
2023-04-25T22:16:13.051Z,7.82
2023-04-25T22:18:40.826Z,6.32
2023-04-25T22:21:08.868Z,8.23
2023-04-25T22:23:37.355Z,8.48
2023-04-25T22:26:05.246Z,8.30
2023-04-25T22:28:33.320Z,8.23
2023-04-25T22:31:00.585Z,8.32
2023-04-25T22:33:27.757Z,7.72
2023-04-25T22:35:54.810Z,8.85
2023-04-25T22:38:22.121Z,7.43
2023-04-25T22:40:49.349Z,7.80
2023-04-25T22:43:16.680Z,7.78
2023-04-25T22:45:44.103Z,8.82
2023-04-25T22:48:11.576Z,10.75
2023-04-25T22:50:40.798Z,11.07
2023-04-25T22:53:10.214Z,10.02
2023-04-25T22:55:37.543Z,8.05
2023-04-25T22:58:05.314Z,8.20
2023-04-25T23:00:34.503Z,8.73
2023-04-25T23:03:06.145Z,8.57
2023-04-25T23:05:33.579Z,7.47
2023-04-25T23:08:00.707Z,6.32
2023-04-25T23:10:30.935Z,8.75
2023-04-25T23:13:00.549Z,6.70
2023-04-25T23:15:30.932Z,8.52
2023-04-25T23:17:58.697Z,9.38
2023-04-25T23:20:26.785Z,7.40
2023-04-25T23:22:54.876Z,7.28
2023-04-25T23:25:22.514Z,9.90
2023-04-25T23:27:49.713Z,7.65
2023-04-25T23:30:17.009Z,8.63
2023-04-25T23:32:44.194Z,11.02
2023-04-25T23:35:11.510Z,7.18
2023-04-25T23:37:40.535Z,7.28
2023-04-25T23:40:12.721Z,7.65
2023-04-25T23:42:41.271Z,8.07
2023-04-25T23:45:09.311Z,7.15
2023-04-25T23:47:36.709Z,7.15
2023-04-25T23:50:04.738Z,5.95
2023-04-25T23:52:32.431Z,7.07
2023-04-25T23:54:59.473Z,6.57
2023-04-25T23:57:26.924Z,8.77
2023-04-25T23:59:54.043Z,6.93
